createdAt,value
2023-02-08T00:01:25.726Z,7.73
2023-02-08T00:03:55.373Z,7.74
2023-02-08T00:06:23.682Z,7.75
2023-02-08T00:08:51.888Z,7.77
2023-02-08T00:11:20.255Z,7.80
2023-02-08T00:13:48.541Z,7.84
2023-02-08T00:16:18.552Z,7.87
2023-02-08T00:18:46.775Z,7.87
2023-02-08T00:21:18.656Z,7.88
2023-02-08T00:23:47.596Z,7.88
2023-02-08T00:26:16.091Z,7.90
2023-02-08T00:28:44.341Z,7.91
2023-02-08T00:31:12.610Z,7.93
2023-02-08T00:33:40.950Z,7.94
2023-02-08T00:36:10.221Z,7.92
2023-02-08T00:38:39.895Z,7.93
2023-02-08T00:41:08.084Z,7.93
2023-02-08T00:43:36.254Z,7.96
2023-02-08T00:46:04.893Z,7.95
2023-02-08T00:48:33.387Z,7.94
2023-02-08T00:51:03.659Z,7.97
2023-02-08T00:53:32.008Z,7.98
2023-02-08T00:56:01.404Z,7.99
2023-02-08T00:58:29.697Z,8.00
2023-02-08T01:00:58.217Z,8.03
2023-02-08T01:03:26.424Z,8.03
2023-02-08T01:05:54.626Z,8.03
2023-02-08T01:08:22.933Z,8.04
2023-02-08T01:10:51.146Z,8.04
2023-02-08T01:13:20.736Z,8.04
2023-02-08T01:15:48.990Z,8.04
2023-02-08T01:18:17.172Z,8.03
2023-02-08T01:20:45.419Z,8.02
2023-02-08T01:23:13.550Z,8.02
2023-02-08T01:25:42.616Z,8.01
2023-02-08T01:28:10.814Z,8.01
2023-02-08T01:30:40.703Z,8.02
2023-02-08T01:33:09.100Z,8.02
2023-02-08T01:35:37.493Z,8.00
2023-02-08T01:38:05.669Z,8.01
2023-02-08T01:40:33.845Z,8.02
2023-02-08T01:43:02.016Z,8.03
2023-02-08T01:45:33.417Z,8.08
2023-02-08T01:48:12.171Z,8.06
2023-02-08T01:50:46.400Z,8.06
2023-02-08T01:53:15.155Z,8.05
2023-02-08T01:55:48.487Z,8.06
2023-02-08T01:58:19.241Z,8.06
2023-02-08T02:00:48.203Z,8.07
2023-02-08T02:03:19.839Z,8.09
2023-02-08T02:05:51.312Z,8.10
2023-02-08T02:08:19.159Z,8.10
2023-02-08T02:10:50.643Z,8.05
2023-02-08T02:13:19.862Z,8.00
2023-02-08T02:15:48.186Z,7.96
2023-02-08T02:18:23.773Z,7.89
2023-02-08T02:21:06.224Z,7.84
2023-02-08T02:24:07.194Z,7.75
2023-02-08T02:27:04.018Z,7.71
2023-02-08T02:30:13.901Z,7.64
2023-02-08T02:32:56.766Z,7.57
2023-02-08T02:35:33.665Z,7.54
2023-02-08T02:38:11.581Z,7.50
2023-02-08T02:40:52.794Z,7.48
2023-02-08T02:43:41.675Z,7.42
2023-02-08T02:46:19.777Z,7.40
2023-02-08T02:49:00.178Z,7.37
2023-02-08T02:51:35.441Z,7.33
2023-02-08T02:54:08.631Z,7.32
2023-02-08T02:56:40.601Z,7.31
2023-02-08T02:59:11.998Z,7.29
2023-02-08T03:01:40.031Z,7.30
2023-02-08T03:04:18.221Z,7.27
2023-02-08T03:07:02.514Z,7.24
2023-02-08T03:09:59.004Z,7.25
2023-02-08T03:12:41.090Z,7.23
2023-02-08T03:15:22.384Z,7.20
2023-02-08T03:18:05.770Z,7.13
2023-02-08T03:20:40.843Z,7.08
2023-02-08T03:23:15.435Z,7.05
2023-02-08T03:25:52.049Z,7.02
2023-02-08T03:28:26.268Z,6.99
2023-02-08T03:31:04.866Z,7.01
2023-02-08T03:33:38.502Z,7.01
2023-02-08T03:36:15.976Z,6.96
2023-02-08T03:38:47.030Z,6.93
2023-02-08T03:41:19.398Z,6.92
2023-02-08T03:43:52.671Z,6.89
2023-02-08T03:46:26.852Z,6.86
2023-02-08T03:49:00.113Z,6.84
2023-02-08T03:51:32.239Z,6.84
2023-02-08T03:54:04.037Z,6.81
2023-02-08T03:56:38.902Z,6.81
2023-02-08T03:59:12.510Z,6.80
2023-02-08T04:01:45.457Z,6.79
2023-02-08T04:04:16.673Z,6.75
2023-02-08T04:06:46.402Z,6.72
2023-02-08T04:09:15.096Z,6.72
2023-02-08T04:11:43.252Z,6.70
2023-02-08T04:14:11.427Z,6.70
2023-02-08T04:16:39.646Z,6.69
2023-02-08T04:19:07.804Z,6.65
2023-02-08T04:21:35.890Z,6.63
2023-02-08T04:24:05.900Z,6.64
2023-02-08T04:26:33.981Z,6.65
2023-02-08T04:29:02.604Z,6.65
2023-02-08T04:31:30.882Z,6.63
2023-02-08T04:33:59.039Z,6.61
2023-02-08T04:36:27.302Z,6.60
2023-02-08T04:38:55.526Z,6.56
2023-02-08T04:41:25.088Z,6.54
2023-02-08T04:43:53.268Z,6.53
2023-02-08T04:46:21.536Z,6.57
2023-02-08T04:48:49.793Z,6.59
2023-02-08T04:51:18.046Z,6.61
2023-02-08T04:53:46.161Z,6.61
2023-02-08T04:56:14.814Z,6.56
2023-02-08T04:58:44.610Z,6.59
2023-02-08T05:01:12.848Z,6.57
2023-02-08T05:03:41.090Z,6.59
2023-02-08T05:06:09.242Z,6.60
2023-02-08T05:08:37.482Z,6.61
2023-02-08T05:11:05.803Z,6.61
2023-02-08T05:13:34.155Z,6.62
2023-02-08T05:16:03.850Z,6.60
2023-02-08T05:18:31.985Z,6.59
2023-02-08T05:21:02.218Z,6.59
2023-02-08T05:23:30.653Z,6.57
2023-02-08T05:25:58.922Z,6.56
2023-02-08T05:28:27.253Z,6.55
2023-02-08T05:30:55.491Z,6.55
2023-02-08T05:33:25.170Z,6.55
2023-02-08T05:35:53.294Z,6.55
2023-02-08T05:38:21.447Z,6.57
2023-02-08T05:40:50.397Z,6.57
2023-02-08T05:43:18.549Z,6.57
2023-02-08T05:45:46.725Z,6.53
2023-02-08T05:48:15.025Z,6.50
2023-02-08T05:50:44.583Z,6.46
2023-02-08T05:53:12.810Z,6.39
2023-02-08T05:55:41.123Z,6.33
2023-02-08T05:58:09.193Z,6.31
2023-02-08T06:00:37.365Z,6.28
2023-02-08T06:03:05.715Z,6.24
2023-02-08T06:05:33.977Z,6.21
2023-02-08T06:08:03.482Z,6.19
2023-02-08T06:10:31.865Z,6.21
2023-02-08T06:13:00.790Z,6.22
2023-02-08T06:15:29.518Z,6.17
2023-02-08T06:17:57.808Z,6.15
2023-02-08T06:20:25.895Z,6.15
2023-02-08T06:22:54.020Z,6.17
2023-02-08T06:25:23.654Z,6.18
2023-02-08T06:27:51.820Z,6.21
2023-02-08T06:30:20.394Z,6.20
2023-02-08T06:32:48.696Z,6.19
2023-02-08T06:35:17.110Z,6.19
2023-02-08T06:37:45.425Z,6.14
2023-02-08T06:40:13.655Z,6.14
2023-02-08T06:42:43.222Z,6.16
2023-02-08T06:45:13.675Z,6.15
2023-02-08T06:47:42.069Z,6.15
2023-02-08T06:50:10.937Z,6.11
2023-02-08T06:52:39.760Z,6.10
2023-02-08T06:55:08.431Z,6.13
2023-02-08T06:57:36.939Z,6.15
2023-02-08T07:00:07.784Z,6.17
2023-02-08T07:02:36.052Z,6.18
2023-02-08T07:05:04.306Z,6.18
2023-02-08T07:07:37.073Z,6.21
2023-02-08T07:10:05.622Z,6.24
2023-02-08T07:12:34.810Z,6.25
2023-02-08T07:15:02.955Z,6.25
2023-02-08T07:17:32.659Z,6.24
2023-02-08T07:20:00.743Z,6.25
2023-02-08T07:22:29.076Z,6.25
2023-02-08T07:24:57.241Z,6.25
2023-02-08T07:27:26.120Z,6.23
2023-02-08T07:29:54.311Z,6.25
2023-02-08T07:32:22.433Z,6.27
2023-02-08T07:34:51.985Z,6.26
2023-02-08T07:37:20.210Z,6.28
2023-02-08T07:39:48.291Z,6.28
2023-02-08T07:42:16.523Z,6.27
2023-02-08T07:44:44.743Z,6.25
2023-02-08T07:47:12.934Z,6.27
2023-02-08T07:49:41.119Z,6.27
2023-02-08T07:52:10.734Z,6.26
2023-02-08T07:54:38.813Z,6.27
2023-02-08T07:57:06.893Z,6.25
2023-02-08T07:59:35.067Z,6.25
2023-02-08T08:02:03.208Z,6.26
2023-02-08T08:04:31.349Z,6.27
2023-02-08T08:06:59.406Z,6.26
2023-02-08T08:09:29.007Z,6.26
2023-02-08T08:11:57.214Z,6.26
2023-02-08T08:14:25.342Z,6.25
2023-02-08T08:16:53.480Z,6.25
2023-02-08T08:19:21.633Z,6.26
2023-02-08T08:21:49.906Z,6.27
2023-02-08T08:24:17.948Z,6.28
2023-02-08T08:26:47.520Z,6.28
2023-02-08T08:29:15.649Z,6.29
2023-02-08T08:31:44.988Z,6.27
2023-02-08T08:34:13.312Z,6.35
2023-02-08T08:36:41.524Z,6.43
2023-02-08T08:39:09.590Z,6.53
2023-02-08T08:41:39.928Z,6.58
2023-02-08T08:44:09.515Z,6.61
2023-02-08T08:46:37.808Z,6.69
2023-02-08T08:49:06.087Z,6.74
2023-02-08T08:51:35.638Z,6.87
2023-02-08T08:54:04.328Z,6.94
2023-02-08T08:56:32.684Z,6.97
2023-02-08T08:59:00.995Z,7.04
2023-02-08T09:01:32.962Z,7.09
2023-02-08T09:04:01.805Z,7.12
2023-02-08T09:06:30.397Z,7.16
2023-02-08T09:08:58.640Z,7.19
2023-02-08T09:11:27.287Z,7.22
2023-02-08T09:13:56.396Z,7.23
2023-02-08T09:16:25.769Z,7.27
2023-02-08T09:18:55.316Z,7.29
2023-02-08T09:21:26.057Z,7.30
2023-02-08T09:23:54.163Z,7.36
2023-02-08T09:26:22.879Z,7.42
2023-02-08T09:28:51.183Z,7.45
2023-02-08T09:31:23.726Z,7.47
2023-02-08T09:33:53.857Z,7.53
2023-02-08T09:36:25.300Z,7.58
2023-02-08T09:39:00.791Z,7.64
2023-02-08T09:41:46.955Z,7.73
2023-02-08T09:44:22.349Z,7.78
2023-02-08T09:47:00.806Z,7.86
2023-02-08T09:49:35.190Z,7.94
2023-02-08T09:52:08.486Z,8.03
2023-02-08T09:54:40.815Z,8.10
2023-02-08T09:57:17.920Z,8.17
2023-02-08T09:59:53.684Z,8.24
2023-02-08T10:02:27.545Z,8.31
2023-02-08T10:05:02.982Z,8.34
2023-02-08T10:07:33.613Z,8.35
2023-02-08T10:10:04.135Z,8.32
2023-02-08T10:12:42.617Z,8.36
2023-02-08T10:15:17.298Z,8.39
2023-02-08T10:18:14.223Z,8.41
2023-02-08T10:20:54.467Z,8.45
2023-02-08T10:23:49.874Z,8.50
2023-02-08T10:26:27.598Z,8.52
2023-02-08T10:29:10.098Z,8.57
2023-02-08T10:31:55.444Z,8.63
2023-02-08T10:34:37.205Z,8.67
2023-02-08T10:37:11.929Z,8.67
2023-02-08T10:39:41.979Z,8.66
2023-02-08T10:42:15.582Z,8.68
2023-02-08T10:44:56.097Z,8.69
2023-02-08T10:47:44.212Z,8.69
2023-02-08T10:50:22.035Z,8.68
2023-02-08T10:52:50.335Z,8.70
2023-02-08T10:55:22.591Z,8.76
2023-02-08T10:57:54.242Z,8.82
2023-02-08T11:00:25.267Z,8.85
2023-02-08T11:02:53.964Z,8.89
2023-02-08T11:05:32.403Z,8.91
2023-02-08T11:08:08.298Z,8.93
2023-02-08T11:10:40.279Z,8.97
2023-02-08T11:13:18.566Z,9.03
2023-02-08T11:15:49.414Z,9.10
2023-02-08T11:18:23.088Z,9.16
2023-02-08T11:20:53.736Z,9.23
2023-02-08T11:23:27.988Z,9.28
2023-02-08T11:26:16.267Z,9.32
2023-02-08T11:28:44.896Z,9.37
2023-02-08T11:31:19.424Z,9.44
2023-02-08T11:34:09.346Z,9.52
2023-02-08T11:36:48.085Z,9.60
2023-02-08T11:39:24.257Z,9.64
2023-02-08T11:41:56.656Z,9.66
2023-02-08T11:44:29.132Z,9.66
2023-02-08T11:47:00.662Z,9.68
2023-02-08T11:49:31.212Z,9.70
2023-02-08T11:51:59.328Z,9.80
2023-02-08T11:54:36.442Z,9.87
2023-02-08T11:57:13.917Z,9.92
2023-02-08T11:59:42.655Z,9.97
2023-02-08T12:02:30.613Z,10.02
2023-02-08T12:05:00.113Z,10.11
2023-02-08T12:07:39.290Z,10.14
2023-02-08T12:10:26.377Z,10.19
2023-02-08T12:13:08.005Z,10.26
2023-02-08T12:15:57.150Z,10.30
2023-02-08T12:18:44.800Z,10.35
2023-02-08T12:21:18.680Z,10.41
2023-02-08T12:23:52.222Z,10.43
2023-02-08T12:26:26.944Z,10.45
2023-02-08T12:29:13.511Z,10.46
2023-02-08T12:32:04.305Z,10.47
2023-02-08T12:34:51.176Z,10.46
2023-02-08T12:37:49.910Z,10.45
2023-02-08T12:40:52.717Z,10.46
2023-02-08T12:43:37.934Z,10.45
2023-02-08T12:46:23.013Z,10.45
2023-02-08T12:49:06.808Z,10.46
2023-02-08T12:51:44.151Z,10.45
2023-02-08T12:54:15.521Z,10.47
2023-02-08T12:57:00.331Z,10.47
2023-02-08T12:59:37.280Z,10.53
2023-02-08T13:02:18.019Z,10.57
2023-02-08T13:04:50.906Z,10.61
2023-02-08T13:07:24.944Z,10.62
2023-02-08T13:10:02.650Z,10.65
2023-02-08T13:12:33.906Z,10.69
2023-02-08T13:15:11.905Z,10.67
2023-02-08T13:17:52.683Z,10.66
2023-02-08T13:20:34.867Z,10.69
2023-02-08T13:23:09.192Z,10.69
2023-02-08T13:25:39.078Z,10.67
2023-02-08T13:28:10.204Z,10.64
2023-02-08T13:30:40.743Z,10.64
2023-02-08T13:33:19.586Z,10.60
2023-02-08T13:35:51.284Z,10.57
2023-02-08T13:38:27.202Z,10.54
2023-02-08T13:41:08.167Z,10.48
2023-02-08T13:43:41.424Z,10.47
2023-02-08T13:46:10.181Z,10.45
2023-02-08T13:48:56.780Z,10.42
2023-02-08T13:51:55.941Z,10.40
2023-02-08T13:54:24.255Z,10.38
2023-02-08T13:56:53.949Z,10.40
2023-02-08T13:59:33.851Z,10.39
2023-02-08T14:02:30.795Z,10.36
2023-02-08T14:05:44.847Z,10.41
2023-02-08T14:08:24.182Z,10.39
2023-02-08T14:11:05.322Z,10.40
2023-02-08T14:13:36.713Z,10.41
2023-02-08T14:16:23.199Z,10.41
2023-02-08T14:18:53.770Z,10.39
2023-02-08T14:21:33.009Z,10.37
2023-02-08T14:24:04.118Z,10.36
2023-02-08T14:26:32.958Z,10.36
2023-02-08T14:29:04.226Z,10.35
2023-02-08T14:31:44.027Z,10.34
2023-02-08T14:34:34.986Z,10.30
2023-02-08T14:37:07.771Z,10.29
2023-02-08T14:39:37.503Z,10.29
2023-02-08T14:42:08.961Z,10.29
2023-02-08T14:44:54.522Z,10.30
2023-02-08T14:47:55.329Z,10.30
2023-02-08T14:50:27.747Z,10.28
2023-02-08T14:53:04.553Z,10.27
2023-02-08T14:55:38.046Z,10.26
2023-02-08T14:58:08.691Z,10.27
2023-02-08T15:00:39.213Z,10.29
2023-02-08T15:03:14.417Z,10.26
2023-02-08T15:05:47.702Z,10.27
2023-02-08T15:08:22.476Z,10.23
2023-02-08T15:10:50.678Z,10.20
2023-02-08T15:13:22.179Z,10.16
2023-02-08T15:15:53.437Z,10.13
2023-02-08T15:18:24.766Z,10.12
2023-02-08T15:21:03.572Z,10.09
2023-02-08T15:23:33.581Z,10.08
2023-02-08T15:26:04.786Z,10.06
2023-02-08T15:28:36.684Z,10.04
2023-02-08T15:31:09.476Z,10.04
2023-02-08T15:33:42.577Z,10.04
2023-02-08T15:36:23.574Z,10.00
2023-02-08T15:38:53.239Z,9.98
2023-02-08T15:41:27.540Z,9.96
2023-02-08T15:44:04.338Z,9.93
2023-02-08T15:46:33.387Z,9.92
2023-02-08T15:49:02.183Z,9.90
2023-02-08T15:51:31.110Z,9.88
2023-02-08T15:54:01.197Z,9.84
2023-02-08T15:56:37.846Z,9.80
2023-02-08T15:59:09.052Z,9.78
2023-02-08T16:01:37.323Z,9.76
2023-02-08T16:04:12.652Z,9.72
2023-02-08T16:06:46.597Z,9.70
2023-02-08T16:09:20.399Z,9.65
2023-02-08T16:11:50.483Z,9.62
2023-02-08T16:14:24.762Z,9.59
2023-02-08T16:16:57.336Z,9.59
2023-02-08T16:19:28.844Z,9.54
2023-02-08T16:21:58.410Z,9.51
2023-02-08T16:24:29.065Z,9.46
2023-02-08T16:27:05.136Z,9.43
2023-02-08T16:29:35.297Z,9.40
2023-02-08T16:32:12.581Z,9.37
2023-02-08T16:34:41.990Z,9.33
2023-02-08T16:37:27.782Z,9.29
2023-02-08T16:40:00.436Z,9.26
2023-02-08T16:42:32.065Z,9.25
2023-02-08T16:45:03.886Z,9.24
2023-02-08T16:47:38.278Z,9.20
2023-02-08T16:50:07.451Z,9.20
2023-02-08T16:52:35.866Z,9.18
2023-02-08T16:55:06.763Z,9.15
2023-02-08T16:57:43.070Z,9.10
2023-02-08T17:00:16.535Z,9.06
2023-02-08T17:02:44.844Z,9.07
2023-02-08T17:05:13.147Z,9.06
2023-02-08T17:07:41.450Z,9.03
2023-02-08T17:10:22.007Z,9.01
2023-02-08T17:12:50.196Z,8.96
2023-02-08T17:15:19.516Z,8.94
2023-02-08T17:17:47.773Z,8.93
2023-02-08T17:20:21.688Z,8.92
2023-02-08T17:22:50.177Z,8.88
2023-02-08T17:25:21.060Z,8.87
2023-02-08T17:27:54.339Z,8.84
2023-02-08T17:30:25.959Z,8.80
2023-02-08T17:32:56.324Z,8.80
2023-02-08T17:35:25.378Z,8.78
2023-02-08T17:37:54.330Z,8.77
2023-02-08T17:40:27.139Z,8.78
2023-02-08T17:42:55.401Z,8.76
2023-02-08T17:45:23.506Z,8.72
2023-02-08T17:47:51.767Z,8.75
2023-02-08T17:50:20.359Z,8.73
2023-02-08T17:52:49.275Z,8.73
2023-02-08T17:55:19.301Z,8.72
2023-02-08T17:57:49.442Z,8.73
2023-02-08T18:00:21.199Z,8.70
2023-02-08T18:02:51.563Z,8.71
2023-02-08T18:05:22.081Z,8.74
2023-02-08T18:07:50.953Z,8.71
2023-02-08T18:10:19.584Z,8.68
2023-02-08T18:12:49.150Z,8.68
2023-02-08T18:15:20.748Z,8.68
2023-02-08T18:17:50.417Z,8.64
2023-02-08T18:20:18.999Z,8.65
2023-02-08T18:22:47.215Z,8.67
2023-02-08T18:25:16.176Z,8.71
2023-02-08T18:27:44.511Z,8.68
2023-02-08T18:30:15.984Z,8.66
2023-02-08T18:32:43.967Z,8.64
2023-02-08T18:35:13.743Z,8.68
2023-02-08T18:37:41.860Z,8.67
2023-02-08T18:40:11.174Z,8.69
2023-02-08T18:42:39.509Z,8.69
2023-02-08T18:45:08.158Z,8.71
2023-02-08T18:47:39.440Z,8.71
2023-02-08T18:50:09.294Z,8.70
2023-02-08T18:52:37.657Z,8.74
2023-02-08T18:55:06.388Z,8.73
2023-02-08T18:57:38.994Z,8.75
2023-02-08T19:00:08.250Z,8.75
2023-02-08T19:02:39.511Z,8.77
2023-02-08T19:05:08.371Z,8.79
2023-02-08T19:07:38.899Z,8.78
2023-02-08T19:10:08.839Z,8.81
2023-02-08T19:12:37.445Z,8.85
2023-02-08T19:15:06.121Z,8.84
2023-02-08T19:17:34.688Z,8.85
2023-02-08T19:20:04.797Z,8.84
2023-02-08T19:22:32.876Z,8.88
2023-02-08T19:25:01.108Z,8.89
2023-02-08T19:27:29.609Z,8.92
2023-02-08T19:29:57.910Z,8.95
2023-02-08T19:32:26.190Z,8.95
2023-02-08T19:34:54.434Z,8.99
2023-02-08T19:37:24.135Z,9.00
2023-02-08T19:39:52.446Z,9.02
2023-02-08T19:42:21.037Z,9.03
2023-02-08T19:44:50.044Z,9.01
2023-02-08T19:47:18.593Z,9.04
2023-02-08T19:49:46.743Z,9.05
2023-02-08T19:52:20.001Z,9.11
2023-02-08T19:54:49.913Z,9.10
2023-02-08T19:57:18.151Z,9.10
2023-02-08T19:59:47.559Z,9.08
2023-02-08T20:02:18.043Z,9.11
2023-02-08T20:04:46.404Z,9.09
2023-02-08T20:07:14.958Z,9.07
2023-02-08T20:09:43.341Z,9.09
2023-02-08T20:12:12.873Z,9.12
2023-02-08T20:14:41.016Z,9.09
2023-02-08T20:17:09.285Z,9.10
2023-02-08T20:19:38.306Z,9.08
2023-02-08T20:22:06.658Z,9.07
2023-02-08T20:24:34.845Z,9.06
2023-02-08T20:27:03.058Z,9.03
2023-02-08T20:29:33.365Z,9.02
2023-02-08T20:32:01.667Z,9.05
2023-02-08T20:34:30.019Z,9.01
2023-02-08T20:37:07.316Z,9.01
2023-02-08T20:39:37.705Z,9.05
2023-02-08T20:42:06.930Z,9.09
2023-02-08T20:44:36.765Z,9.12
2023-02-08T20:47:05.215Z,9.11
2023-02-08T20:49:33.545Z,9.06
2023-02-08T20:52:01.699Z,8.99
2023-02-08T20:54:30.254Z,8.94
2023-02-08T20:56:58.559Z,8.86
2023-02-08T20:59:26.669Z,8.79
2023-02-08T21:01:56.401Z,8.76
2023-02-08T21:04:24.763Z,8.69
2023-02-08T21:06:53.728Z,8.64
2023-02-08T21:09:22.023Z,8.62
2023-02-08T21:11:51.854Z,8.59
2023-02-08T21:14:23.405Z,8.56
2023-02-08T21:16:54.025Z,8.51
2023-02-08T21:19:24.825Z,8.50
2023-02-08T21:21:53.899Z,8.48
2023-02-08T21:24:24.067Z,8.50
2023-02-08T21:26:52.495Z,8.52
2023-02-08T21:29:21.360Z,8.53
2023-02-08T21:31:52.540Z,8.54
2023-02-08T21:34:21.588Z,8.50
2023-02-08T21:36:51.450Z,8.49
2023-02-08T21:39:19.849Z,8.48
2023-02-08T21:41:48.392Z,8.48
2023-02-08T21:44:16.718Z,8.45
2023-02-08T21:46:44.982Z,8.44
2023-02-08T21:49:30.826Z,8.46
2023-02-08T21:52:17.850Z,8.40
2023-02-08T21:54:46.374Z,8.37
2023-02-08T21:57:19.239Z,8.38
2023-02-08T21:59:48.647Z,8.37
2023-02-08T22:02:21.800Z,8.38
2023-02-08T22:05:07.852Z,8.40
2023-02-08T22:07:44.983Z,8.35
2023-02-08T22:10:14.478Z,8.39
2023-02-08T22:12:42.707Z,8.38
2023-02-08T22:15:13.101Z,8.40
2023-02-08T22:17:41.261Z,8.39
2023-02-08T22:20:10.482Z,8.36
2023-02-08T22:22:39.150Z,8.37
2023-02-08T22:25:09.289Z,8.36
2023-02-08T22:27:39.247Z,8.37
2023-02-08T22:30:08.475Z,8.39
2023-02-08T22:32:36.774Z,8.40
2023-02-08T22:35:04.861Z,8.43
2023-02-08T22:37:33.972Z,8.37
2023-02-08T22:40:02.244Z,8.33
2023-02-08T22:42:31.747Z,8.32
2023-02-08T22:45:00.611Z,8.29
2023-02-08T22:47:28.902Z,8.27
2023-02-08T22:49:58.623Z,8.28
2023-02-08T22:52:27.433Z,8.28
2023-02-08T22:54:56.329Z,8.26
2023-02-08T22:57:24.553Z,8.24
2023-02-08T22:59:54.388Z,8.22
2023-02-08T23:02:23.486Z,8.22
2023-02-08T23:04:51.751Z,8.19
2023-02-08T23:07:20.131Z,8.18
2023-02-08T23:09:48.383Z,8.19
2023-02-08T23:12:16.608Z,8.19
2023-02-08T23:14:44.947Z,8.19
2023-02-08T23:17:14.435Z,8.18
2023-02-08T23:19:42.738Z,8.19
2023-02-08T23:22:10.844Z,8.19
2023-02-08T23:24:39.095Z,8.20
2023-02-08T23:27:07.251Z,8.18
2023-02-08T23:29:35.490Z,8.19
2023-02-08T23:32:03.797Z,8.19
2023-02-08T23:34:36.918Z,8.17
2023-02-08T23:37:05.064Z,8.12
2023-02-08T23:39:34.481Z,8.10
2023-02-08T23:42:02.790Z,8.03
2023-02-08T23:44:30.894Z,8.00
2023-02-08T23:46:59.208Z,7.92
2023-02-08T23:49:27.427Z,7.86
2023-02-08T23:51:57.053Z,7.76
2023-02-08T23:54:25.104Z,7.73
2023-02-08T23:56:53.256Z,7.69
2023-02-08T23:59:21.572Z,7.61
